Observation data for McLean on 05/14/2018      Previous  Date  Next       Current Mesonet Observations  Soil Data  Daily Summary Page  Observations in Plain Language
KMCS 140500Z 15014G19KT 21/17 A2992 RMK A01 T02120172  RH  082%=      5-min Rain = 0
KMCS 140505Z 15014G19KT 21/17 A2992 RMK A01 T02100173  RH  084%=      5-min Rain = 0
KMCS 140510Z 15014KT 21/17 A2992 RMK A01 T02080172  RH  084%=      5-min Rain = 0
KMCS 140515Z 15012G17KT 21/17 A2992 RMK A01 T02070172  RH  085%=      5-min Rain = 0
KMCS 140520Z 14012KT 21/17 A2992 RMK A01 T02050171  RH  085%=      5-min Rain = 0
KMCS 140525Z 15014G21KT 21/17 A2992 RMK A01 T02050170  RH  084%=      5-min Rain = 0
KMCS 140530Z 15014G19KT 21/17 A2992 RMK A01 T02050168  RH  084%=      5-min Rain = 0
KMCS 140535Z 14015G22KT 21/17 A2992 RMK A01 T02050167  RH  083%=      5-min Rain = 0
KMCS 140540Z 14016G21KT 21/17 A2993 RMK A01 T02050167  RH  083%=      5-min Rain = 0
KMCS 140545Z 13015G21KT 20/17 A2993 RMK A01 T02040167  RH  084%=      5-min Rain = 0
KMCS 140550Z 13015G23KT 20/17 A2993 RMK A01 T02040169  RH  084%=      5-min Rain = 0
KMCS 140555Z 12015G23KT 20/17 A2993 RMK A01 T02030169  RH  085%=      5-min Rain = 0
KMCS 140600Z 13017G26KT 20/17 A2993 RMK A01 T02030168  RH  084%=      5-min Rain = 0
KMCS 140605Z 13015G23KT 20/17 A2993 RMK A01 T02010168  RH  085%=      5-min Rain = 0
KMCS 140610Z 13013G18KT 20/17 A2994 RMK A01 T01990168  RH  086%=      5-min Rain = 0
KMCS 140615Z 14013G18KT 20/17 A2994 RMK A01 T01990168  RH  086%=      5-min Rain = 0
KMCS 140620Z 13014G20KT 20/17 A2994 RMK A01 T01990166  RH  085%=      5-min Rain = 0
KMCS 140625Z 13014G20KT 20/17 A2994 RMK A01 T01980165  RH  085%=      5-min Rain = 0
KMCS 140630Z 14013G20KT 20/17 A2994 RMK A01 T01970165  RH  086%=      5-min Rain = 0
KMCS 140635Z 13013G19KT 20/16 A2994 RMK A01 T01950164  RH  086%=      5-min Rain = 0
KMCS 140640Z 14014KT 19/16 A2994 RMK A01 T01940163  RH  086%=      5-min Rain = 0
KMCS 140645Z 13015G21KT 19/16 A2993 RMK A01 T01940163  RH  086%=      5-min Rain = 0
KMCS 140650Z 13015G23KT 19/16 A2993 RMK A01 T01940162  RH  086%=      5-min Rain = 0
KMCS 140655Z 13014G20KT 19/16 A2993 RMK A01 T01930162  RH  086%=      5-min Rain = 0
KMCS 140700Z 13014KT 19/16 A2993 RMK A01 T01920162  RH  086%=      5-min Rain = 0
KMCS 140705Z 13014G20KT 19/16 A2992 RMK A01 T01920161  RH  086%=      5-min Rain = 0
KMCS 140710Z 13013G19KT 19/16 A2992 RMK A01 T01920161  RH  086%=      5-min Rain = 0
KMCS 140715Z 13012G18KT 19/16 A2992 RMK A01 T01920161  RH  086%=      5-min Rain = 0
KMCS 140720Z 13012KT 19/16 A2992 RMK A01 T01920161  RH  086%=      5-min Rain = 0
KMCS 140725Z 13014G20KT 19/16 A2992 RMK A01 T01910161  RH  086%=      5-min Rain = 0
KMCS 140730Z 14012G18KT 19/16 A2992 RMK A01 T01910160  RH  086%=      5-min Rain = 0
KMCS 140735Z 14012G18KT 19/16 A2992 RMK A01 T01900160  RH  087%=      5-min Rain = 0
KMCS 140740Z 14011KT 19/16 A2992 RMK A01 T01890160  RH  087%=      5-min Rain = 0
KMCS 140745Z 14011G17KT 19/16 A2992 RMK A01 T01880160  RH  088%=      5-min Rain = 0
KMCS 140750Z 14012G17KT 19/16 A2991 RMK A01 T01880160  RH  087%=      5-min Rain = 0
KMCS 140755Z 14011KT 19/16 A2991 RMK A01 T01880160  RH  088%=      5-min Rain = 0
KMCS 140800Z 14011KT 19/16 A2991 RMK A01 T01870159  RH  088%=      5-min Rain = 0
KMCS 140805Z 14011KT 19/16 A2991 RMK A01 T01870159  RH  088%=      5-min Rain = 0
KMCS 140810Z 14010G15KT 19/16 A2991 RMK A01 T01870159  RH  088%=      5-min Rain = 0
KMCS 140815Z 15009G14KT 19/16 A2991 RMK A01 T01870159  RH  088%=      5-min Rain = 0
KMCS 140820Z 15009KT 19/16 A2991 RMK A01 T01880159  RH  087%=      5-min Rain = 0
KMCS 140825Z 15010G16KT 19/16 A2991 RMK A01 T01890159  RH  087%=      5-min Rain = 0
KMCS 140830Z 15011G18KT 19/16 A299 RMK A01 T01900160  RH  087%=      5-min Rain = 0
KMCS 140835Z 15012G17KT 19/16 A299 RMK A01 T01910160  RH  086%=      5-min Rain = 0
KMCS 140840Z 15011G17KT 19/16 A299 RMK A01 T01910160  RH  086%=      5-min Rain = 0
KMCS 140845Z 14010G17KT 19/16 A299 RMK A01 T01910160  RH  086%=      5-min Rain = 0
KMCS 140850Z 15010G15KT 19/16 A299 RMK A01 T01900160  RH  087%=      5-min Rain = 0
KMCS 140855Z 15009KT 19/16 A299 RMK A01 T01900160  RH  087%=      5-min Rain = 0
KMCS 140900Z 15009G14KT 19/16 A299 RMK A01 T01900160  RH  087%=      5-min Rain = 0
KMCS 140905Z 16010KT 19/16 A299 RMK A01 T01900160  RH  087%=      5-min Rain = 0
KMCS 140910Z 16011G16KT 19/16 A299 RMK A01 T01900160  RH  087%=      5-min Rain = 0
KMCS 140915Z 16011KT 19/16 A299 RMK A01 T01890161  RH  087%=      5-min Rain = 0
KMCS 140920Z 16011KT 19/16 A299 RMK A01 T01890161  RH  088%=      5-min Rain = 0
KMCS 140925Z 16010G15KT 19/16 A299 RMK A01 T01880161  RH  088%=      5-min Rain = 0
KMCS 140930Z 16011KT 19/16 A299 RMK A01 T01880161  RH  088%=      5-min Rain = 0
KMCS 140935Z 16011KT 19/16 A299 RMK A01 T01880161  RH  089%=      5-min Rain = 0
KMCS 140940Z 16010G16KT 19/16 A299 RMK A01 T01870161  RH  089%=      5-min Rain = 0
KMCS 140945Z 16011KT 19/16 A2991 RMK A01 T01870161  RH  089%=      5-min Rain = 0
KMCS 140950Z 16010G15KT 19/16 A2991 RMK A01 T01870161  RH  089%=      5-min Rain = 0
KMCS 140955Z 16011G16KT 19/16 A2991 RMK A01 T01870161  RH  089%=      5-min Rain = 0
KMCS 141000Z 16011G16KT 19/16 A299 RMK A01 T01870161  RH  089%=      5-min Rain = 0
KMCS 141005Z 16011KT 19/16 A299 RMK A01 T01870161  RH  089%=      5-min Rain = 0
KMCS 141010Z 16010KT 19/16 A2991 RMK A01 T01860160  RH  089%=      5-min Rain = 0
KMCS 141015Z 16011KT 19/16 A2991 RMK A01 T01860160  RH  089%=      5-min Rain = 0
KMCS 141020Z 16011G16KT 19/16 A2991 RMK A01 T01860160  RH  089%=      5-min Rain = 0
KMCS 141025Z 16010KT 19/16 A2991 RMK A01 T01850160  RH  089%=      5-min Rain = 0
KMCS 141030Z 17010KT 19/16 A2991 RMK A01 T01850160  RH  090%=      5-min Rain = 0
KMCS 141035Z 16010KT 18/16 A2991 RMK A01 T01840160  RH  090%=      5-min Rain = 0
KMCS 141040Z 16010KT 18/16 A2991 RMK A01 T01840159  RH  090%=      5-min Rain = 0
KMCS 141045Z 16011G16KT 18/16 A2991 RMK A01 T01840159  RH  090%=      5-min Rain = 0
KMCS 141050Z 16011KT 18/16 A299 RMK A01 T01830159  RH  090%=      5-min Rain = 0
KMCS 141055Z 16010KT 18/16 A299 RMK A01 T01830159  RH  090%=      5-min Rain = 0
KMCS 141100Z 17011KT 18/16 A299 RMK A01 T01830159  RH  090%=      5-min Rain = 0
KMCS 141105Z 17011KT 18/16 A299 RMK A01 T01830158  RH  090%=      5-min Rain = 0
KMCS 141110Z 17010KT 18/16 A299 RMK A01 T01820158  RH  090%=      5-min Rain = 0
KMCS 141115Z 17011KT 18/16 A299 RMK A01 T01820158  RH  090%=      5-min Rain = 0
KMCS 141120Z 17011G16KT 18/16 A2991 RMK A01 T01820158  RH  090%=      5-min Rain = 0
KMCS 141125Z 17011G16KT 18/16 A2991 RMK A01 T01820157  RH  090%=      5-min Rain = 0
KMCS 141130Z 17010G15KT 18/16 A2991 RMK A01 T01820157  RH  089%=      5-min Rain = 0
KMCS 141135Z 17011G16KT 18/16 A2991 RMK A01 T01810157  RH  090%=      5-min Rain = 0
KMCS 141140Z 17010KT 18/16 A2991 RMK A01 T01810156  RH  090%=      5-min Rain = 0
KMCS 141145Z 17012KT 18/16 A2991 RMK A01 T01810156  RH  090%=      5-min Rain = 0
KMCS 141150Z 17011G17KT 18/16 A2991 RMK A01 T01810156  RH  089%=      5-min Rain = 0
KMCS 141155Z 17011G16KT 18/16 A2991 RMK A01 T01810156  RH  090%=      5-min Rain = 0
KMCS 141200Z 17010KT 18/16 A2991 RMK A01 T01800156  RH  090%=      5-min Rain = 0
KMCS 141205Z 17010KT 18/16 A2991 RMK A01 T01800156  RH  090%=      5-min Rain = 0
KMCS 141210Z 17011G16KT 18/16 A2991 RMK A01 T01810156  RH  089%=      5-min Rain = 0
KMCS 141215Z 17011G16KT 18/16 A2991 RMK A01 T01830156  RH  088%=      5-min Rain = 0
KMCS 141220Z 17012KT 18/16 A2991 RMK A01 T01830156  RH  088%=      5-min Rain = 0
KMCS 141225Z 17011KT 18/16 A2991 RMK A01 T01840156  RH  088%=      5-min Rain = 0
KMCS 141230Z 17010KT 18/16 A2991 RMK A01 T01840156  RH  088%=      5-min Rain = 0
KMCS 141235Z 17012KT 18/16 A2991 RMK A01 T01840156  RH  088%=      5-min Rain = 0
KMCS 141240Z 17012KT 19/16 A2992 RMK A01 T01860157  RH  087%=      5-min Rain = 0
KMCS 141245Z 17011G16KT 19/16 A2992 RMK A01 T01890157  RH  086%=      5-min Rain = 0
KMCS 141250Z 17012G17KT 19/16 A2992 RMK A01 T01900157  RH  085%=      5-min Rain = 0
KMCS 141255Z 17012KT 19/16 A2992 RMK A01 T01920158  RH  085%=      5-min Rain = 0
KMCS 141300Z 17011G16KT 19/16 A2992 RMK A01 T01920158  RH  085%=      5-min Rain = 0
KMCS 141305Z 17012KT 19/16 A2992 RMK A01 T01920158  RH  084%=      5-min Rain = 0
KMCS 141310Z 17011G17KT 19/16 A2992 RMK A01 T01930158  RH  084%=      5-min Rain = 0
KMCS 141315Z 17012G18KT 19/16 A2992 RMK A01 T01940158  RH  083%=      5-min Rain = 0
KMCS 141320Z 17012G18KT 20/16 A2993 RMK A01 T01960159  RH  083%=      5-min Rain = 0
KMCS 141325Z 17012G17KT 20/16 A2993 RMK A01 T01980159  RH  082%=      5-min Rain = 0
KMCS 141330Z 17011G17KT 20/16 A2993 RMK A01 T02010160  RH  081%=      5-min Rain = 0
KMCS 141335Z 17012G17KT 20/16 A2993 RMK A01 T02000159  RH  081%=      5-min Rain = 0
KMCS 141340Z 17012G17KT 20/16 A2993 RMK A01 T01990158  RH  081%=      5-min Rain = 0
KMCS 141345Z 17012KT 20/16 A2993 RMK A01 T01990159  RH  081%=      5-min Rain = 0
KMCS 141350Z 17011G18KT 20/16 A2993 RMK A01 T02000160  RH  082%=      5-min Rain = 0
KMCS 141355Z 17012G18KT 20/16 A2994 RMK A01 T01990159  RH  082%=      5-min Rain = 0
KMCS 141400Z 18012G18KT 20/16 A2994 RMK A01 T01990160  RH  082%=      5-min Rain = 0
KMCS 141405Z 17011G18KT 20/16 A2994 RMK A01 T02020162  RH  082%=      5-min Rain = 0
KMCS 141410Z 17013KT 21/16 A2994 RMK A01 T02050163  RH  080%=      5-min Rain = 0
KMCS 141415Z 17012G18KT 21/16 A2994 RMK A01 T02090164  RH  079%=      5-min Rain = 0
KMCS 141420Z 17013G18KT 21/16 A2994 RMK A01 T02090162  RH  078%=      5-min Rain = 0
KMCS 141425Z 17012G18KT 21/16 A2994 RMK A01 T02110163  RH  078%=      5-min Rain = 0
KMCS 141430Z 17011G17KT 21/16 A2994 RMK A01 T02120164  RH  078%=      5-min Rain = 0
KMCS 141435Z 17011KT 22/17 A2994 RMK A01 T02170166  RH  077%=      5-min Rain = 0
KMCS 141440Z 18014KT 22/17 A2994 RMK A01 T02210166  RH  075%=      5-min Rain = 0
KMCS 141445Z 18014G19KT 23/17 A2994 RMK A01 T02250166  RH  073%=      5-min Rain = 0
KMCS 141450Z 18013G19KT 23/17 A2994 RMK A01 T02260166  RH  072%=      5-min Rain = 0
KMCS 141455Z 17014G19KT 23/16 A2994 RMK A01 T02260164  RH  072%=      5-min Rain = 0
KMCS 141500Z 18015G20KT 23/16 A2994 RMK A01 T02260164  RH  071%=      5-min Rain = 0
KMCS 141505Z 18013G18KT 23/17 A2994 RMK A01 T02280165  RH  071%=      5-min Rain = 0
KMCS 141510Z 18013G19KT 23/17 A2994 RMK A01 T02320166  RH  069%=      5-min Rain = 0
KMCS 141515Z 18014G19KT 23/17 A2994 RMK A01 T02330165  RH  069%=      5-min Rain = 0
KMCS 141520Z 18014G19KT 24/17 A2994 RMK A01 T02360166  RH  068%=      5-min Rain = 0
KMCS 141525Z 18015KT 24/17 A2994 RMK A01 T02370166  RH  068%=      5-min Rain = 0
KMCS 141530Z 19016G23KT 24/17 A2993 RMK A01 T02390166  RH  067%=      5-min Rain = 0
KMCS 141535Z 18017KT 24/17 A2993 RMK A01 T02400166  RH  067%=      5-min Rain = 0
KMCS 141540Z 19015KT 24/17 A2993 RMK A01 T02420167  RH  066%=      5-min Rain = 0
KMCS 141545Z 18015G21KT 25/17 A2994 RMK A01 T02460168  RH  065%=      5-min Rain = 0
KMCS 141550Z 19015G23KT 25/17 A2994 RMK A01 T02480167  RH  064%=      5-min Rain = 0
KMCS 141555Z 18016G21KT 25/17 A2993 RMK A01 T02490165  RH  063%=      5-min Rain = 0
KMCS 141600Z 18015G21KT 25/17 A2993 RMK A01 T02490167  RH  063%=      5-min Rain = 0
KMCS 141605Z 18014G20KT 25/17 A2994 RMK A01 T02510168  RH  063%=      5-min Rain = 0
KMCS 141610Z 19014G20KT 25/17 A2994 RMK A01 T02540168  RH  062%=      5-min Rain = 0
KMCS 141615Z 19015G20KT 26/17 A2994 RMK A01 T02560167  RH  061%=      5-min Rain = 0
KMCS 141620Z 19015KT 26/16 A2993 RMK A01 T02570164  RH  059%=      5-min Rain = 0
KMCS 141625Z 19014G20KT 26/17 A2993 RMK A01 T02600165  RH  059%=      5-min Rain = 0
KMCS 141630Z 20013G19KT 26/17 A2994 RMK A01 T02620166  RH  058%=      5-min Rain = 0
KMCS 141635Z 19012G17KT 27/17 A2994 RMK A01 T02650165  RH  057%=      5-min Rain = 0
KMCS 141640Z 20012G18KT 27/16 A2994 RMK A01 T02670159  RH  054%=      5-min Rain = 0
KMCS 141645Z 21013G18KT 27/16 A2994 RMK A01 T02690158  RH  053%=      5-min Rain = 0
KMCS 141650Z 19015G20KT 27/16 A2994 RMK A01 T02700158  RH  053%=      5-min Rain = 0
KMCS 141655Z 20013G18KT 27/16 A2994 RMK A01 T02720156  RH  051%=      5-min Rain = 0
KMCS 141700Z 21011KT 27/15 A2994 RMK A01 T02730153  RH  050%=      5-min Rain = 0
KMCS 141705Z 20012KT 28/15 A2994 RMK A01 T02750151  RH  049%=      5-min Rain = 0
KMCS 141710Z 20013KT 28/15 A2994 RMK A01 T02780148  RH  047%=      5-min Rain = 0
KMCS 141715Z 22013KT 28/14 A2993 RMK A01 T02820139  RH  043%=      5-min Rain = 0
KMCS 141720Z 21012G17KT 29/14 A2993 RMK A01 T02850143  RH  044%=      5-min Rain = 0
KMCS 141725Z 21011KT 29/15 A2993 RMK A01 T02850148  RH  045%=      5-min Rain = 0
KMCS 141730Z 20012KT 29/15 A2993 RMK A01 T02870149  RH  045%=      5-min Rain = 0
KMCS 141735Z 20009G14KT 29/15 A2993 RMK A01 T02890150  RH  045%=      5-min Rain = 0
KMCS 141740Z 20009G15KT 29/15 A2993 RMK A01 T02920149  RH  044%=      5-min Rain = 0
KMCS 141745Z 22011G16KT 29/14 A2993 RMK A01 T02930135  RH  040%=      5-min Rain = 0
KMCS 141750Z 20011KT 29/14 A2993 RMK A01 T02930139  RH  041%=      5-min Rain = 0
KMCS 141755Z 21010KT 30/13 A2993 RMK A01 T02960133  RH  038%=      5-min Rain = 0
KMCS 141800Z 22012G17KT 30/13 A2992 RMK A01 T02980134  RH  038%=      5-min Rain = 0
KMCS 141805Z 22011G16KT 30/13 A2992 RMK A01 T03020131  RH  037%=      5-min Rain = 0
KMCS 141810Z 21010G18KT 31/14 A2992 RMK A01 T03050135  RH  037%=      5-min Rain = 0
KMCS 141815Z 22012G18KT 30/13 A2992 RMK A01 T03040128  RH  035%=      5-min Rain = 0
KMCS 141820Z 21010G15KT 31/12 A2991 RMK A01 T03070123  RH  034%=      5-min Rain = 0
KMCS 141825Z 18009G15KT 31/13 A2991 RMK A01 T03060129  RH  035%=      5-min Rain = 0
KMCS 141830Z 20010G15KT 31/13 A2991 RMK A01 T03090129  RH  035%=      5-min Rain = 0
KMCS 141835Z 19007KT 31/13 A2991 RMK A01 T03090128  RH  034%=      5-min Rain = 0
KMCS 141840Z 19005G10KT 31/13 A2991 RMK A01 T03090129  RH  035%=      5-min Rain = 0
KMCS 141845Z 18008G14KT 31/13 A2991 RMK A01 T03120129  RH  034%=      5-min Rain = 0
KMCS 141850Z 18006KT 31/13 A2991 RMK A01 T03130127  RH  033%=      5-min Rain = 0
KMCS 141855Z 19005G10KT 32/13 A299 RMK A01 T03170125  RH  032%=      5-min Rain = 0
KMCS 141900Z 24005KT 32/12 A299 RMK A01 T03170118  RH  031%=      5-min Rain = 0
KMCS 141905Z 21004KT 32/12 A299 RMK A01 T03190117  RH  030%=      5-min Rain = 0
KMCS 141910Z 19007G14KT 32/12 A299 RMK A01 T03210117  RH  030%=      5-min Rain = 0
KMCS 141915Z 19006KT 32/11 A299 RMK A01 T03220110  RH  028%=      5-min Rain = 0
KMCS 141920Z 25008G13KT 33/09 A2989 RMK A01 T03270091  RH  024%=      5-min Rain = 0
KMCS 141925Z 21006KT 33/09 A2989 RMK A01 T03330093  RH  024%=      5-min Rain = 0
KMCS 141930Z 19008G13KT 33/10 A2989 RMK A01 T03290096  RH  025%=      5-min Rain = 0
KMCS 141935Z 23004KT 33/10 A2989 RMK A01 T03280097  RH  025%=      5-min Rain = 0
KMCS 141940Z 27002KT 34/10 A2988 RMK A01 T03370098  RH  024%=      5-min Rain = 0
KMCS 141945Z 18008G20KT 34/10 A2988 RMK A01 T03380095  RH  023%=      5-min Rain = 0
KMCS 141950Z 15008G15KT 33/12 A2988 RMK A01 T03330117  RH  028%=      5-min Rain = 0
KMCS 141955Z 13009KT 33/12 A2988 RMK A01 T03250118  RH  029%=      5-min Rain = 0
KMCS 142000Z 13011G19KT 33/11 A2988 RMK A01 T03250107  RH  027%=      5-min Rain = 0
KMCS 142005Z 12007G13KT 32/12 A2987 RMK A01 T03240118  RH  029%=      5-min Rain = 0
KMCS 142010Z 15008G13KT 32/12 A2987 RMK A01 T03220118  RH  030%=      5-min Rain = 0
KMCS 142015Z 16010G17KT 33/12 A2987 RMK A01 T03250118  RH  029%=      5-min Rain = 0
KMCS 142020Z 15010G15KT 32/12 A2986 RMK A01 T03190116  RH  030%=      5-min Rain = 0
KMCS 142025Z 12011G17KT 32/12 A2985 RMK A01 T03150116  RH  031%=      5-min Rain = 0
KMCS 142030Z 13011G16KT 31/12 A2985 RMK A01 T03130118  RH  031%=      5-min Rain = 0
KMCS 142035Z 13011G16KT 31/12 A2984 RMK A01 T03110119  RH  032%=      5-min Rain = 0
KMCS 142040Z 14013G19KT 31/12 A2984 RMK A01 T03100116  RH  031%=      5-min Rain = 0
KMCS 142045Z 16012G17KT 31/12 A2984 RMK A01 T03080115  RH  032%=      5-min Rain = 0
KMCS 142050Z 17009KT 30/11 A2985 RMK A01 T03040114  RH  032%=      5-min Rain = 0
KMCS 142055Z 17010KT 30/11 A2985 RMK A01 T03030112  RH  032%=      5-min Rain = 0
KMCS 142100Z 18010KT 30/12 A2985 RMK A01 T03020119  RH  034%=      5-min Rain = 0
KMCS 142105Z 21009KT 30/13 A2986 RMK A01 T02970132  RH  038%=      5-min Rain = 0
KMCS 142110Z 36012G20KT 27/14 A2986 RMK A01 T02740141  RH  046%=      5-min Rain = 0
KMCS 142115Z 00005G11KT 25/14 A2987 RMK A01 T02520136  RH  051%=      5-min Rain = 0
KMCS 142120Z 34009KT 25/13 A2986 RMK A01 T02540129  RH  048%=      5-min Rain = 0
KMCS 142125Z 34005G10KT 26/12 A2987 RMK A01 T02630124  RH  044%=      5-min Rain = 0
KMCS 142130Z 34009G21KT 26/12 A2988 RMK A01 T02630118  RH  043%=      5-min Rain = 0.03
KMCS 142135Z 01008G13KT 27/09 A2986 RMK A01 T02690088  RH  033%=      5-min Rain = 0.02
KMCS 142140Z 31008KT 25/11 A2986 RMK A01 T02480113  RH  045%=      5-min Rain = 0.01
KMCS 142145Z 25012G19KT 24/14 A2987 RMK A01 T02380138  RH  056%=      5-min Rain = 0.02
KMCS 142150Z 26009G18KT 24/14 A2987 RMK A01 T02390135  RH  054%=      5-min Rain = 0.02
KMCS 142155Z 06004KT 23/15 A2985 RMK A01 T02320146  RH  061%=      5-min Rain = 0.01
KMCS 142200Z 07005KT 23/14 A2985 RMK A01 T02260141  RH  061%=      5-min Rain = 0.02
KMCS 142205Z 07004KT 23/13 A2985 RMK A01 T02340126  RH  053%=      5-min Rain = 0.01
KMCS 142210Z 21003KT 24/15 A2985 RMK A01 T02360152  RH  062%=      5-min Rain = 0.05
KMCS 142215Z 24012G18KT 22/15 A2986 RMK A01 T02210153  RH  068%=      5-min Rain = 0.11
KMCS 142220Z 22008G20KT 21/15 A2987 RMK A01 T02100151  RH  072%=      5-min Rain = 0.09
KMCS 142225Z 13010KT 21/15 A2985 RMK A01 T02100154  RH  074%=      5-min Rain = 0.01
KMCS 142230Z 13009KT 23/15 A2983 RMK A01 T02290153  RH  065%=      5-min Rain = 0
KMCS 142235Z 11007KT 24/16 A2982 RMK A01 T02370159  RH  065%=      5-min Rain = 0
KMCS 142240Z 12009KT 24/15 A2982 RMK A01 T02430154  RH  060%=      5-min Rain = 0
KMCS 142245Z 12008KT 25/16 A2982 RMK A01 T02500159  RH  060%=      5-min Rain = 0
KMCS 142250Z 12007KT 26/16 A2983 RMK A01 T02550161  RH  059%=      5-min Rain = 0
KMCS 142255Z 12009KT 25/16 A2983 RMK A01 T02540162  RH  060%=      5-min Rain = 0
KMCS 142300Z 14009KT 25/16 A2983 RMK A01 T02530155  RH  057%=      5-min Rain = 0
KMCS 142305Z 16008KT 25/16 A2983 RMK A01 T02530161  RH  059%=      5-min Rain = 0
KMCS 142310Z 15007KT 25/16 A2981 RMK A01 T02510159  RH  060%=      5-min Rain = 0
KMCS 142315Z 14006KT 25/16 A2981 RMK A01 T02520159  RH  059%=      5-min Rain = 0
KMCS 142320Z 17007KT 25/15 A298 RMK A01 T02530151  RH  056%=      5-min Rain = 0
KMCS 142325Z 19010KT 25/15 A298 RMK A01 T02530147  RH  054%=      5-min Rain = 0
KMCS 142330Z 21011KT 26/14 A298 RMK A01 T02560141  RH  051%=      5-min Rain = 0
KMCS 142335Z 22015G26KT 26/14 A298 RMK A01 T02550135  RH  049%=      5-min Rain = 0
KMCS 142340Z 23019G29KT 25/13 A2979 RMK A01 T02490126  RH  048%=      5-min Rain = 0
KMCS 142345Z 21022G30KT 24/13 A2981 RMK A01 T02400129  RH  052%=      5-min Rain = 0
KMCS 142350Z 20018G23KT 23/14 A2985 RMK A01 T02320135  RH  057%=      5-min Rain = 0
KMCS 142355Z 19020G25KT 23/13 A2987 RMK A01 T02280129  RH  056%=      5-min Rain = 0
KMCS 150000Z 16028G40KT 22/12 A299 RMK A01 T02200123  RH  056%=      5-min Rain = 0
KMCS 150005Z 15022G37KT 20/11 A299 RMK A01 T02010109  RH  058%=      5-min Rain = 0
KMCS 150010Z 14018G25KT 19/11 A2989 RMK A01 T01940112  RH  061%=      5-min Rain = 0
KMCS 150015Z 15024G33KT 20/11 A2989 RMK A01 T01960113  RH  061%=      5-min Rain = 0
KMCS 150020Z 15021G29KT 19/12 A299 RMK A01 T01940120  RH  065%=      5-min Rain = 0
KMCS 150025Z 16021G29KT 19/13 A299 RMK A01 T01920127  RH  068%=      5-min Rain = 0
KMCS 150030Z 16021G27KT 20/13 A2989 RMK A01 T01970128  RH  067%=      5-min Rain = 0
KMCS 150035Z 16020G27KT 20/13 A2988 RMK A01 T02020128  RH  065%=      5-min Rain = 0
KMCS 150040Z 16023G29KT 20/14 A2988 RMK A01 T01950135  RH  071%=      5-min Rain = 0
KMCS 150045Z 15023G32KT 19/14 A2987 RMK A01 T01900139  RH  075%=      5-min Rain = 0
KMCS 150050Z 15022G33KT 19/14 A2987 RMK A01 T01870143  RH  079%=      5-min Rain = 0
KMCS 150055Z 15021G31KT 19/14 A2988 RMK A01 T01870143  RH  078%=      5-min Rain = 0
KMCS 150100Z 15019G27KT 19/14 A2988 RMK A01 T01870143  RH  079%=      5-min Rain = 0
KMCS 150105Z 15018G26KT 19/14 A2988 RMK A01 T01880140  RH  077%=      5-min Rain = 0
KMCS 150110Z 15016G22KT 19/14 A2988 RMK A01 T01900139  RH  075%=      5-min Rain = 0
KMCS 150115Z 14016G22KT 19/14 A2987 RMK A01 T01900137  RH  074%=      5-min Rain = 0
KMCS 150120Z 14012KT 19/14 A2987 RMK A01 T01900138  RH  075%=      5-min Rain = 0
KMCS 150125Z 14010KT 19/14 A2988 RMK A01 T01890139  RH  076%=      5-min Rain = 0
KMCS 150130Z 13009KT 19/14 A2988 RMK A01 T01900138  RH  075%=      5-min Rain = 0
KMCS 150135Z 14009KT 19/13 A2989 RMK A01 T01930133  RH  071%=      5-min Rain = 0
KMCS 150140Z 13008KT 20/13 A299 RMK A01 T01960130  RH  068%=      5-min Rain = 0
KMCS 150145Z 14006KT 20/13 A299 RMK A01 T01960130  RH  068%=      5-min Rain = 0
KMCS 150150Z 18010G18KT 20/13 A2991 RMK A01 T01950132  RH  070%=      5-min Rain = 0
KMCS 150155Z 15009G15KT 19/13 A299 RMK A01 T01920132  RH  071%=      5-min Rain = 0
KMCS 150200Z 18011G16KT 19/13 A2991 RMK A01 T01910133  RH  072%=      5-min Rain = 0
KMCS 150205Z 16007KT 19/13 A2991 RMK A01 T01890133  RH  073%=      5-min Rain = 0
KMCS 150210Z 15008KT 19/13 A2991 RMK A01 T01890132  RH  072%=      5-min Rain = 0
KMCS 150215Z 13008G13KT 19/13 A2991 RMK A01 T01880131  RH  072%=      5-min Rain = 0
KMCS 150220Z 12008KT 19/13 A2992 RMK A01 T01880129  RH  072%=      5-min Rain = 0
KMCS 150225Z 11009KT 19/13 A2992 RMK A01 T01890127  RH  070%=      5-min Rain = 0
KMCS 150230Z 11009KT 19/13 A2991 RMK A01 T01900125  RH  068%=      5-min Rain = 0
KMCS 150235Z 12010KT 19/12 A2992 RMK A01 T01900123  RH  067%=      5-min Rain = 0
KMCS 150240Z 14011KT 19/12 A2992 RMK A01 T01910121  RH  066%=      5-min Rain = 0
KMCS 150245Z 14011KT 19/12 A2992 RMK A01 T01930117  RH  064%=      5-min Rain = 0
KMCS 150250Z 13011G16KT 19/12 A2993 RMK A01 T01940116  RH  063%=      5-min Rain = 0
KMCS 150255Z 12012KT 19/12 A2994 RMK A01 T01930116  RH  063%=      5-min Rain = 0
KMCS 150300Z 11011G18KT 19/12 A2994 RMK A01 T01920116  RH  064%=      5-min Rain = 0
KMCS 150305Z 12011G16KT 19/12 A2994 RMK A01 T01920117  RH  064%=      5-min Rain = 0
KMCS 150310Z 11010KT 19/12 A2994 RMK A01 T01890118  RH  065%=      5-min Rain = 0
KMCS 150315Z 11009KT 19/12 A2994 RMK A01 T01860119  RH  068%=      5-min Rain = 0
KMCS 150320Z 11008KT 18/12 A2994 RMK A01 T01830121  RH  070%=      5-min Rain = 0
KMCS 150325Z 10008KT 18/12 A2994 RMK A01 T01800122  RH  072%=      5-min Rain = 0
KMCS 150330Z 11008KT 18/12 A2993 RMK A01 T01790122  RH  072%=      5-min Rain = 0
KMCS 150335Z 11009KT 18/12 A2993 RMK A01 T01790121  RH  072%=      5-min Rain = 0
KMCS 150340Z 11009KT 18/12 A2993 RMK A01 T01800119  RH  070%=      5-min Rain = 0
KMCS 150345Z 10009KT 18/12 A2993 RMK A01 T01810119  RH  070%=      5-min Rain = 0
KMCS 150350Z 11009KT 18/12 A2992 RMK A01 T01800118  RH  070%=      5-min Rain = 0
KMCS 150355Z 11009KT 18/12 A2992 RMK A01 T01800116  RH  068%=      5-min Rain = 0
KMCS 150400Z 11010G15KT 18/11 A2992 RMK A01 T01820113  RH  066%=      5-min Rain = 0
KMCS 150405Z 11010KT 19/11 A2992 RMK A01 T01850110  RH  064%=      5-min Rain = 0
KMCS 150410Z 11009KT 18/11 A2992 RMK A01 T01840109  RH  064%=      5-min Rain = 0
KMCS 150415Z 11008KT 18/11 A2992 RMK A01 T01830108  RH  064%=      5-min Rain = 0
KMCS 150420Z 12008KT 18/11 A2992 RMK A01 T01820109  RH  064%=      5-min Rain = 0
KMCS 150425Z 12008KT 18/11 A2992 RMK A01 T01800110  RH  066%=      5-min Rain = 0
KMCS 150430Z 11007KT 18/11 A2991 RMK A01 T01790110  RH  066%=      5-min Rain = 0
KMCS 150435Z 11007KT 18/11 A2991 RMK A01 T01770111  RH  068%=      5-min Rain = 0
KMCS 150440Z 11007KT 17/11 A2992 RMK A01 T01740112  RH  069%=      5-min Rain = 0
KMCS 150445Z 11006KT 17/11 A2992 RMK A01 T01720113  RH  071%=      5-min Rain = 0
KMCS 150450Z 10007KT 17/11 A2992 RMK A01 T01700114  RH  072%=      5-min Rain = 0
KMCS 150455Z 09007KT 17/11 A2991 RMK A01 T01690114  RH  072%=      5-min Rain = 0

Page generated in 0.0345 seconds.